sensor_id;sensor_type;location;lat;lon;timestamp;P1;durP1;ratioP1;P2;durP2;ratioP2
9848;SDS011;4963;51.444;6.528;2024-02-21T00:02:25;28.60;;;13.50;;
9848;SDS011;4963;51.444;6.528;2024-02-21T00:04:53;25.00;;;13.67;;
9848;SDS011;4963;51.444;6.528;2024-02-21T00:07:20;26.10;;;13.77;;
9848;SDS011;4963;51.444;6.528;2024-02-21T00:09:47;27.73;;;13.93;;
9848;SDS011;4963;51.444;6.528;2024-02-21T00:12:14;24.17;;;13.10;;
9848;SDS011;4963;51.444;6.528;2024-02-21T00:14:41;26.80;;;13.97;;
9848;SDS011;4963;51.444;6.528;2024-02-21T00:17:09;27.40;;;13.07;;
9848;SDS011;4963;51.444;6.528;2024-02-21T00:19:36;27.60;;;13.90;;
9848;SDS011;4963;51.444;6.528;2024-02-21T00:22:04;31.67;;;14.70;;
9848;SDS011;4963;51.444;6.528;2024-02-21T00:24:31;29.40;;;14.00;;
9848;SDS011;4963;51.444;6.528;2024-02-21T00:26:58;24.50;;;14.17;;
9848;SDS011;4963;51.444;6.528;2024-02-21T00:29:25;28.03;;;13.47;;
9848;SDS011;4963;51.444;6.528;2024-02-21T00:31:52;27.87;;;13.37;;
9848;SDS011;4963;51.444;6.528;2024-02-21T00:34:18;28.87;;;13.87;;
9848;SDS011;4963;51.444;6.528;2024-02-21T00:36:45;23.30;;;12.93;;
9848;SDS011;4963;51.444;6.528;2024-02-21T00:39:13;31.47;;;14.43;;
9848;SDS011;4963;51.444;6.528;2024-02-21T00:41:40;28.00;;;14.77;;
9848;SDS011;4963;51.444;6.528;2024-02-21T00:44:06;28.00;;;14.50;;
9848;SDS011;4963;51.444;6.528;2024-02-21T00:46:35;26.00;;;14.83;;
9848;SDS011;4963;51.444;6.528;2024-02-21T00:49:04;25.60;;;13.97;;
9848;SDS011;4963;51.444;6.528;2024-02-21T00:51:32;23.50;;;13.20;;
9848;SDS011;4963;51.444;6.528;2024-02-21T00:53:59;27.47;;;13.60;;
9848;SDS011;4963;51.444;6.528;2024-02-21T00:56:27;30.40;;;14.50;;
9848;SDS011;4963;51.444;6.528;2024-02-21T00:58:56;27.80;;;13.67;;
9848;SDS011;4963;51.444;6.528;2024-02-21T01:01:23;25.07;;;13.80;;
9848;SDS011;4963;51.444;6.528;2024-02-21T01:03:51;27.00;;;13.93;;
9848;SDS011;4963;51.444;6.528;2024-02-21T01:06:18;24.60;;;14.13;;
9848;SDS011;4963;51.444;6.528;2024-02-21T01:08:46;25.30;;;13.50;;
9848;SDS011;4963;51.444;6.528;2024-02-21T01:11:13;24.47;;;13.60;;
9848;SDS011;4963;51.444;6.528;2024-02-21T01:13:42;27.57;;;14.90;;
9848;SDS011;4963;51.444;6.528;2024-02-21T01:16:09;27.70;;;13.83;;
9848;SDS011;4963;51.444;6.528;2024-02-21T01:18:36;27.10;;;14.17;;
9848;SDS011;4963;51.444;6.528;2024-02-21T01:21:04;23.27;;;13.40;;
9848;SDS011;4963;51.444;6.528;2024-02-21T01:23:32;25.73;;;13.30;;
9848;SDS011;4963;51.444;6.528;2024-02-21T01:26:00;25.33;;;14.00;;
9848;SDS011;4963;51.444;6.528;2024-02-21T01:28:27;27.27;;;13.83;;
9848;SDS011;4963;51.444;6.528;2024-02-21T01:30:55;26.73;;;12.93;;
9848;SDS011;4963;51.444;6.528;2024-02-21T01:33:22;21.73;;;11.63;;
9848;SDS011;4963;51.444;6.528;2024-02-21T01:35:49;28.57;;;13.10;;
9848;SDS011;4963;51.444;6.528;2024-02-21T01:38:16;21.13;;;11.77;;
9848;SDS011;4963;51.444;6.528;2024-02-21T01:40:43;21.23;;;11.70;;
9848;SDS011;4963;51.444;6.528;2024-02-21T01:43:16;23.83;;;13.10;;
9848;SDS011;4963;51.444;6.528;2024-02-21T01:45:44;22.33;;;11.47;;
9848;SDS011;4963;51.444;6.528;2024-02-21T01:48:16;22.17;;;11.77;;
9848;SDS011;4963;51.444;6.528;2024-02-21T01:50:44;19.87;;;12.37;;
9848;SDS011;4963;51.444;6.528;2024-02-21T01:53:12;23.77;;;12.07;;
9848;SDS011;4963;51.444;6.528;2024-02-21T01:55:44;23.10;;;10.80;;
9848;SDS011;4963;51.444;6.528;2024-02-21T01:58:11;24.87;;;11.10;;
9848;SDS011;4963;51.444;6.528;2024-02-21T02:00:38;22.00;;;11.47;;
9848;SDS011;4963;51.444;6.528;2024-02-21T02:03:08;19.60;;;11.27;;
9848;SDS011;4963;51.444;6.528;2024-02-21T02:05:45;19.63;;;11.37;;
9848;SDS011;4963;51.444;6.528;2024-02-21T02:08:12;22.63;;;11.57;;
9848;SDS011;4963;51.444;6.528;2024-02-21T02:10:39;22.10;;;10.90;;
9848;SDS011;4963;51.444;6.528;2024-02-21T02:13:07;18.10;;;9.77;;
9848;SDS011;4963;51.444;6.528;2024-02-21T02:15:40;22.47;;;11.07;;
9848;SDS011;4963;51.444;6.528;2024-02-21T02:18:07;22.37;;;11.17;;
9848;SDS011;4963;51.444;6.528;2024-02-21T02:20:34;19.40;;;11.83;;
9848;SDS011;4963;51.444;6.528;2024-02-21T02:23:04;28.40;;;11.47;;
9848;SDS011;4963;51.444;6.528;2024-02-21T02:25:37;24.70;;;11.67;;
9848;SDS011;4963;51.444;6.528;2024-02-21T02:28:05;27.37;;;12.30;;
9848;SDS011;4963;51.444;6.528;2024-02-21T02:30:33;22.57;;;10.63;;
9848;SDS011;4963;51.444;6.528;2024-02-21T02:33:01;20.10;;;10.93;;
9848;SDS011;4963;51.444;6.528;2024-02-21T02:35:28;21.50;;;11.00;;
9848;SDS011;4963;51.444;6.528;2024-02-21T02:37:55;21.57;;;9.97;;
9848;SDS011;4963;51.444;6.528;2024-02-21T02:40:22;20.70;;;10.10;;
9848;SDS011;4963;51.444;6.528;2024-02-21T02:42:51;15.97;;;9.97;;
9848;SDS011;4963;51.444;6.528;2024-02-21T02:45:20;20.37;;;10.57;;
9848;SDS011;4963;51.444;6.528;2024-02-21T02:47:48;21.90;;;10.87;;
9848;SDS011;4963;51.444;6.528;2024-02-21T02:50:15;20.70;;;11.10;;
9848;SDS011;4963;51.444;6.528;2024-02-21T02:52:42;20.13;;;10.70;;
9848;SDS011;4963;51.444;6.528;2024-02-21T02:55:09;21.20;;;10.83;;
9848;SDS011;4963;51.444;6.528;2024-02-21T02:57:35;23.10;;;10.37;;
9848;SDS011;4963;51.444;6.528;2024-02-21T03:00:05;16.40;;;9.53;;
9848;SDS011;4963;51.444;6.528;2024-02-21T03:02:34;18.47;;;10.33;;
9848;SDS011;4963;51.444;6.528;2024-02-21T03:05:02;15.40;;;9.60;;
9848;SDS011;4963;51.444;6.528;2024-02-21T03:07:38;21.33;;;10.53;;
9848;SDS011;4963;51.444;6.528;2024-02-21T03:10:05;18.70;;;10.47;;
9848;SDS011;4963;51.444;6.528;2024-02-21T03:12:33;21.37;;;10.33;;
9848;SDS011;4963;51.444;6.528;2024-02-21T03:15:00;22.17;;;10.47;;
9848;SDS011;4963;51.444;6.528;2024-02-21T03:17:28;15.33;;;9.43;;
9848;SDS011;4963;51.444;6.528;2024-02-21T03:19:55;18.73;;;8.97;;
9848;SDS011;4963;51.444;6.528;2024-02-21T03:22:22;20.07;;;9.87;;
9848;SDS011;4963;51.444;6.528;2024-02-21T03:24:49;18.93;;;9.47;;
9848;SDS011;4963;51.444;6.528;2024-02-21T03:27:16;19.17;;;8.53;;
9848;SDS011;4963;51.444;6.528;2024-02-21T03:29:44;17.50;;;9.27;;
9848;SDS011;4963;51.444;6.528;2024-02-21T03:32:11;18.30;;;8.60;;
9848;SDS011;4963;51.444;6.528;2024-02-21T03:34:41;18.23;;;9.27;;
9848;SDS011;4963;51.444;6.528;2024-02-21T03:37:08;19.10;;;8.33;;
9848;SDS011;4963;51.444;6.528;2024-02-21T03:39:34;18.17;;;8.60;;
9848;SDS011;4963;51.444;6.528;2024-02-21T03:42:02;16.97;;;9.47;;
9848;SDS011;4963;51.444;6.528;2024-02-21T03:44:30;15.73;;;9.07;;
9848;SDS011;4963;51.444;6.528;2024-02-21T03:46:57;18.33;;;9.30;;
9848;SDS011;4963;51.444;6.528;2024-02-21T03:49:24;20.00;;;9.13;;
9848;SDS011;4963;51.444;6.528;2024-02-21T03:51:52;19.63;;;9.80;;
9848;SDS011;4963;51.444;6.528;2024-02-21T03:54:21;15.50;;;8.97;;
9848;SDS011;4963;51.444;6.528;2024-02-21T03:56:50;19.47;;;10.07;;
9848;SDS011;4963;51.444;6.528;2024-02-21T03:59:17;17.10;;;9.47;;
9848;SDS011;4963;51.444;6.528;2024-02-21T04:01:44;18.50;;;9.63;;
9848;SDS011;4963;51.444;6.528;2024-02-21T04:04:11;17.30;;;8.57;;
9848;SDS011;4963;51.444;6.528;2024-02-21T04:06:45;20.83;;;8.90;;
9848;SDS011;4963;51.444;6.528;2024-02-21T04:09:14;13.90;;;8.47;;
9848;SDS011;4963;51.444;6.528;2024-02-21T04:11:41;15.43;;;8.73;;
9848;SDS011;4963;51.444;6.528;2024-02-21T04:14:08;19.20;;;8.53;;
9848;SDS011;4963;51.444;6.528;2024-02-21T04:16:36;22.47;;;9.20;;
9848;SDS011;4963;51.444;6.528;2024-02-21T04:19:03;16.73;;;8.27;;
9848;SDS011;4963;51.444;6.528;2024-02-21T04:21:30;16.47;;;8.93;;
9848;SDS011;4963;51.444;6.528;2024-02-21T04:23:57;19.13;;;8.50;;
9848;SDS011;4963;51.444;6.528;2024-02-21T04:26:25;14.73;;;7.57;;
9848;SDS011;4963;51.444;6.528;2024-02-21T04:28:52;17.53;;;8.30;;
9848;SDS011;4963;51.444;6.528;2024-02-21T04:31:19;21.63;;;8.73;;
9848;SDS011;4963;51.444;6.528;2024-02-21T04:33:46;16.77;;;8.20;;
9848;SDS011;4963;51.444;6.528;2024-02-21T04:36:13;13.43;;;7.90;;
9848;SDS011;4963;51.444;6.528;2024-02-21T04:38:40;13.23;;;6.93;;
9848;SDS011;4963;51.444;6.528;2024-02-21T04:41:06;14.63;;;7.47;;
9848;SDS011;4963;51.444;6.528;2024-02-21T04:43:35;15.50;;;7.40;;
9848;SDS011;4963;51.444;6.528;2024-02-21T04:46:02;12.13;;;6.73;;
9848;SDS011;4963;51.444;6.528;2024-02-21T04:48:29;11.07;;;6.87;;
9848;SDS011;4963;51.444;6.528;2024-02-21T04:50:57;14.60;;;7.03;;
9848;SDS011;4963;51.444;6.528;2024-02-21T04:53:25;16.13;;;6.83;;
9848;SDS011;4963;51.444;6.528;2024-02-21T04:55:52;13.67;;;6.53;;
9848;SDS011;4963;51.444;6.528;2024-02-21T04:58:19;13.90;;;7.20;;
9848;SDS011;4963;51.444;6.528;2024-02-21T05:00:47;14.97;;;6.40;;
9848;SDS011;4963;51.444;6.528;2024-02-21T05:03:14;13.30;;;6.57;;
9848;SDS011;4963;51.444;6.528;2024-02-21T05:05:41;14.37;;;7.03;;
9848;SDS011;4963;51.444;6.528;2024-02-21T05:08:09;15.27;;;6.90;;
9848;SDS011;4963;51.444;6.528;2024-02-21T05:10:36;13.90;;;7.13;;
9848;SDS011;4963;51.444;6.528;2024-02-21T05:13:03;15.20;;;7.83;;
9848;SDS011;4963;51.444;6.528;2024-02-21T05:15:30;13.23;;;7.27;;
9848;SDS011;4963;51.444;6.528;2024-02-21T05:17:59;11.17;;;6.83;;
9848;SDS011;4963;51.444;6.528;2024-02-21T05:20:26;11.53;;;6.30;;
9848;SDS011;4963;51.444;6.528;2024-02-21T05:22:54;15.10;;;7.00;;
9848;SDS011;4963;51.444;6.528;2024-02-21T05:25:20;13.13;;;6.60;;
9848;SDS011;4963;51.444;6.528;2024-02-21T05:27:47;14.57;;;6.40;;
9848;SDS011;4963;51.444;6.528;2024-02-21T05:30:18;11.23;;;6.67;;
9848;SDS011;4963;51.444;6.528;2024-02-21T05:32:45;10.97;;;6.57;;
9848;SDS011;4963;51.444;6.528;2024-02-21T05:35:13;13.30;;;6.53;;
9848;SDS011;4963;51.444;6.528;2024-02-21T05:37:40;12.97;;;6.40;;
9848;SDS011;4963;51.444;6.528;2024-02-21T05:40:07;13.17;;;6.83;;
9848;SDS011;4963;51.444;6.528;2024-02-21T05:42:37;11.10;;;6.87;;
9848;SDS011;4963;51.444;6.528;2024-02-21T05:45:04;14.30;;;6.63;;
9848;SDS011;4963;51.444;6.528;2024-02-21T05:47:32;17.10;;;7.30;;
9848;SDS011;4963;51.444;6.528;2024-02-21T05:49:59;11.10;;;6.40;;
9848;SDS011;4963;51.444;6.528;2024-02-21T05:52:27;15.03;;;6.87;;
9848;SDS011;4963;51.444;6.528;2024-02-21T05:54:54;12.63;;;6.73;;
9848;SDS011;4963;51.444;6.528;2024-02-21T05:57:22;11.37;;;6.80;;
9848;SDS011;4963;51.444;6.528;2024-02-21T05:59:48;12.90;;;6.33;;
9848;SDS011;4963;51.444;6.528;2024-02-21T06:02:15;10.13;;;6.10;;
9848;SDS011;4963;51.444;6.528;2024-02-21T06:04:42;12.23;;;6.70;;
9848;SDS011;4963;51.444;6.528;2024-02-21T06:07:09;11.60;;;6.17;;
9848;SDS011;4963;51.444;6.528;2024-02-21T06:09:37;16.97;;;7.60;;
9848;SDS011;4963;51.444;6.528;2024-02-21T06:12:04;15.73;;;7.50;;
9848;SDS011;4963;51.444;6.528;2024-02-21T06:14:31;14.17;;;7.00;;
9848;SDS011;4963;51.444;6.528;2024-02-21T06:16:58;12.63;;;7.70;;
9848;SDS011;4963;51.444;6.528;2024-02-21T06:19:25;14.87;;;6.90;;
9848;SDS011;4963;51.444;6.528;2024-02-21T06:21:52;21.80;;;9.37;;
9848;SDS011;4963;51.444;6.528;2024-02-21T06:24:19;14.93;;;7.97;;
9848;SDS011;4963;51.444;6.528;2024-02-21T06:26:48;18.13;;;8.13;;
9848;SDS011;4963;51.444;6.528;2024-02-21T06:29:18;21.90;;;8.60;;
9848;SDS011;4963;51.444;6.528;2024-02-21T06:31:44;19.90;;;8.37;;
9848;SDS011;4963;51.444;6.528;2024-02-21T06:34:11;17.30;;;8.00;;
9848;SDS011;4963;51.444;6.528;2024-02-21T06:36:38;15.23;;;8.00;;
9848;SDS011;4963;51.444;6.528;2024-02-21T06:39:05;16.87;;;8.00;;
9848;SDS011;4963;51.444;6.528;2024-02-21T06:41:33;19.70;;;8.37;;
9848;SDS011;4963;51.444;6.528;2024-02-21T06:44:01;16.93;;;8.50;;
9848;SDS011;4963;51.444;6.528;2024-02-21T06:46:28;17.87;;;8.80;;
9848;SDS011;4963;51.444;6.528;2024-02-21T06:48:56;22.37;;;8.63;;
9848;SDS011;4963;51.444;6.528;2024-02-21T06:51:25;16.07;;;7.73;;
9848;SDS011;4963;51.444;6.528;2024-02-21T06:53:52;15.80;;;7.67;;
9848;SDS011;4963;51.444;6.528;2024-02-21T06:56:19;18.37;;;8.00;;
9848;SDS011;4963;51.444;6.528;2024-02-21T06:58:46;24.20;;;7.87;;
9848;SDS011;4963;51.444;6.528;2024-02-21T07:01:14;16.70;;;7.70;;
9848;SDS011;4963;51.444;6.528;2024-02-21T07:03:41;14.87;;;8.40;;
9848;SDS011;4963;51.444;6.528;2024-02-21T07:06:08;16.00;;;8.10;;
9848;SDS011;4963;51.444;6.528;2024-02-21T07:08:35;15.63;;;7.87;;
9848;SDS011;4963;51.444;6.528;2024-02-21T07:11:02;15.43;;;7.97;;
9848;SDS011;4963;51.444;6.528;2024-02-21T07:13:29;18.47;;;7.93;;
9848;SDS011;4963;51.444;6.528;2024-02-21T07:15:56;16.50;;;8.43;;
9848;SDS011;4963;51.444;6.528;2024-02-21T07:18:24;16.10;;;7.53;;
9848;SDS011;4963;51.444;6.528;2024-02-21T07:20:51;13.10;;;7.17;;
9848;SDS011;4963;51.444;6.528;2024-02-21T07:23:18;15.50;;;7.33;;
9848;SDS011;4963;51.444;6.528;2024-02-21T07:25:45;13.80;;;7.27;;
9848;SDS011;4963;51.444;6.528;2024-02-21T07:28:12;18.73;;;8.20;;
9848;SDS011;4963;51.444;6.528;2024-02-21T07:30:39;16.03;;;8.33;;
9848;SDS011;4963;51.444;6.528;2024-02-21T07:33:06;14.37;;;7.27;;
9848;SDS011;4963;51.444;6.528;2024-02-21T07:35:34;13.23;;;6.93;;
9848;SDS011;4963;51.444;6.528;2024-02-21T07:38:03;14.57;;;7.73;;
9848;SDS011;4963;51.444;6.528;2024-02-21T07:40:30;15.47;;;7.33;;
9848;SDS011;4963;51.444;6.528;2024-02-21T07:42:56;10.00;;;7.00;;
9848;SDS011;4963;51.444;6.528;2024-02-21T07:45:23;13.50;;;7.40;;
9848;SDS011;4963;51.444;6.528;2024-02-21T07:47:51;13.23;;;7.20;;
9848;SDS011;4963;51.444;6.528;2024-02-21T07:50:18;15.70;;;6.90;;
9848;SDS011;4963;51.444;6.528;2024-02-21T07:52:46;15.20;;;7.10;;
9848;SDS011;4963;51.444;6.528;2024-02-21T07:55:13;15.80;;;7.03;;
9848;SDS011;4963;51.444;6.528;2024-02-21T07:57:40;13.53;;;7.10;;
9848;SDS011;4963;51.444;6.528;2024-02-21T08:00:07;18.87;;;7.03;;
9848;SDS011;4963;51.444;6.528;2024-02-21T08:02:40;11.47;;;6.17;;
9848;SDS011;4963;51.444;6.528;2024-02-21T08:05:08;12.47;;;6.30;;
9848;SDS011;4963;51.444;6.528;2024-02-21T08:07:37;11.53;;;6.17;;
9848;SDS011;4963;51.444;6.528;2024-02-21T08:10:06;12.73;;;6.20;;
9848;SDS011;4963;51.444;6.528;2024-02-21T08:12:34;10.67;;;5.93;;
9848;SDS011;4963;51.444;6.528;2024-02-21T08:15:01;14.03;;;5.73;;
9848;SDS011;4963;51.444;6.528;2024-02-21T08:17:29;10.80;;;5.40;;
9848;SDS011;4963;51.444;6.528;2024-02-21T08:19:56;9.47;;;5.00;;
9848;SDS011;4963;51.444;6.528;2024-02-21T08:22:23;10.17;;;5.27;;
9848;SDS011;4963;51.444;6.528;2024-02-21T08:24:50;10.63;;;5.10;;
9848;SDS011;4963;51.444;6.528;2024-02-21T08:27:18;12.50;;;4.90;;
9848;SDS011;4963;51.444;6.528;2024-02-21T08:29:45;11.17;;;5.13;;
9848;SDS011;4963;51.444;6.528;2024-02-21T08:32:12;10.10;;;5.17;;
9848;SDS011;4963;51.444;6.528;2024-02-21T08:34:39;11.40;;;5.33;;
9848;SDS011;4963;51.444;6.528;2024-02-21T08:37:06;8.27;;;5.30;;
9848;SDS011;4963;51.444;6.528;2024-02-21T08:39:33;14.90;;;5.73;;
9848;SDS011;4963;51.444;6.528;2024-02-21T08:42:00;9.57;;;5.20;;
9848;SDS011;4963;51.444;6.528;2024-02-21T08:44:28;14.27;;;6.90;;
9848;SDS011;4963;51.444;6.528;2024-02-21T08:46:55;11.90;;;6.03;;
9848;SDS011;4963;51.444;6.528;2024-02-21T08:49:22;14.23;;;6.20;;
9848;SDS011;4963;51.444;6.528;2024-02-21T08:51:52;12.33;;;5.73;;
9848;SDS011;4963;51.444;6.528;2024-02-21T08:54:19;15.30;;;6.47;;
9848;SDS011;4963;51.444;6.528;2024-02-21T08:56:46;14.50;;;6.10;;
9848;SDS011;4963;51.444;6.528;2024-02-21T08:59:13;13.53;;;5.70;;
9848;SDS011;4963;51.444;6.528;2024-02-21T09:01:41;13.40;;;5.77;;
9848;SDS011;4963;51.444;6.528;2024-02-21T09:04:08;13.17;;;6.63;;
9848;SDS011;4963;51.444;6.528;2024-02-21T09:06:35;12.90;;;5.80;;
9848;SDS011;4963;51.444;6.528;2024-02-21T09:09:06;10.63;;;4.63;;
9848;SDS011;4963;51.444;6.528;2024-02-21T09:11:33;11.37;;;5.63;;
9848;SDS011;4963;51.444;6.528;2024-02-21T09:14:00;13.13;;;5.47;;
9848;SDS011;4963;51.444;6.528;2024-02-21T09:16:28;14.00;;;6.20;;
9848;SDS011;4963;51.444;6.528;2024-02-21T09:18:57;9.63;;;5.73;;
9848;SDS011;4963;51.444;6.528;2024-02-21T09:21:25;10.03;;;5.30;;
9848;SDS011;4963;51.444;6.528;2024-02-21T09:23:53;14.60;;;5.47;;
9848;SDS011;4963;51.444;6.528;2024-02-21T09:26:20;11.47;;;5.47;;
9848;SDS011;4963;51.444;6.528;2024-02-21T09:28:46;10.10;;;5.00;;
9848;SDS011;4963;51.444;6.528;2024-02-21T09:31:13;14.23;;;5.50;;
9848;SDS011;4963;51.444;6.528;2024-02-21T09:33:40;13.90;;;4.97;;
9848;SDS011;4963;51.444;6.528;2024-02-21T09:36:08;11.63;;;4.90;;
9848;SDS011;4963;51.444;6.528;2024-02-21T09:38:35;10.97;;;5.73;;
9848;SDS011;4963;51.444;6.528;2024-02-21T09:41:04;11.73;;;5.27;;
9848;SDS011;4963;51.444;6.528;2024-02-21T09:43:40;10.60;;;5.17;;
9848;SDS011;4963;51.444;6.528;2024-02-21T09:46:12;10.20;;;4.73;;
9848;SDS011;4963;51.444;6.528;2024-02-21T09:48:49;12.27;;;4.93;;
9848;SDS011;4963;51.444;6.528;2024-02-21T09:51:28;11.47;;;4.93;;
9848;SDS011;4963;51.444;6.528;2024-02-21T09:53:57;11.57;;;5.43;;
9848;SDS011;4963;51.444;6.528;2024-02-21T09:56:24;12.40;;;4.70;;
9848;SDS011;4963;51.444;6.528;2024-02-21T09:58:51;12.87;;;5.10;;
9848;SDS011;4963;51.444;6.528;2024-02-21T10:01:18;9.23;;;4.50;;
9848;SDS011;4963;51.444;6.528;2024-02-21T10:03:45;9.03;;;4.33;;
9848;SDS011;4963;51.444;6.528;2024-02-21T10:06:13;10.53;;;4.77;;
9848;SDS011;4963;51.444;6.528;2024-02-21T10:08:41;12.37;;;5.20;;
9848;SDS011;4963;51.444;6.528;2024-02-21T10:11:08;9.67;;;5.37;;
9848;SDS011;4963;51.444;6.528;2024-02-21T10:13:35;9.53;;;3.87;;
9848;SDS011;4963;51.444;6.528;2024-02-21T10:16:03;9.87;;;4.27;;
9848;SDS011;4963;51.444;6.528;2024-02-21T10:18:32;11.37;;;4.40;;
9848;SDS011;4963;51.444;6.528;2024-02-21T10:21:03;7.83;;;4.07;;
9848;SDS011;4963;51.444;6.528;2024-02-21T10:23:42;11.27;;;4.37;;
9848;SDS011;4963;51.444;6.528;2024-02-21T10:26:10;11.70;;;4.50;;
9848;SDS011;4963;51.444;6.528;2024-02-21T10:28:37;9.60;;;4.20;;
9848;SDS011;4963;51.444;6.528;2024-02-21T10:31:07;9.27;;;4.00;;
9848;SDS011;4963;51.444;6.528;2024-02-21T10:33:34;13.00;;;5.07;;
9848;SDS011;4963;51.444;6.528;2024-02-21T10:36:07;9.13;;;4.03;;
9848;SDS011;4963;51.444;6.528;2024-02-21T10:38:35;9.97;;;3.83;;
9848;SDS011;4963;51.444;6.528;2024-02-21T10:41:05;9.30;;;3.90;;
9848;SDS011;4963;51.444;6.528;2024-02-21T10:43:40;9.17;;;3.20;;
9848;SDS011;4963;51.444;6.528;2024-02-21T10:46:07;10.63;;;3.50;;
9848;SDS011;4963;51.444;6.528;2024-02-21T10:48:38;11.77;;;3.73;;
9848;SDS011;4963;51.444;6.528;2024-02-21T10:51:11;12.57;;;3.50;;
9848;SDS011;4963;51.444;6.528;2024-02-21T10:53:45;10.50;;;4.30;;
9848;SDS011;4963;51.444;6.528;2024-02-21T10:56:24;9.90;;;3.70;;
9848;SDS011;4963;51.444;6.528;2024-02-21T10:58:54;9.13;;;4.17;;
9848;SDS011;4963;51.444;6.528;2024-02-21T11:01:25;9.23;;;3.93;;
9848;SDS011;4963;51.444;6.528;2024-02-21T11:03:57;7.20;;;3.30;;
9848;SDS011;4963;51.444;6.528;2024-02-21T11:06:26;7.83;;;3.43;;
9848;SDS011;4963;51.444;6.528;2024-02-21T11:09:01;6.43;;;3.47;;
9848;SDS011;4963;51.444;6.528;2024-02-21T11:11:30;8.83;;;3.47;;
9848;SDS011;4963;51.444;6.528;2024-02-21T11:14:09;10.10;;;4.27;;
9848;SDS011;4963;51.444;6.528;2024-02-21T11:16:36;8.80;;;4.43;;
9848;SDS011;4963;51.444;6.528;2024-02-21T11:19:08;9.43;;;4.10;;
9848;SDS011;4963;51.444;6.528;2024-02-21T11:21:37;7.70;;;4.17;;
9848;SDS011;4963;51.444;6.528;2024-02-21T11:24:06;11.53;;;4.23;;
9848;SDS011;4963;51.444;6.528;2024-02-21T11:26:36;10.83;;;4.03;;
9848;SDS011;4963;51.444;6.528;2024-02-21T11:29:04;8.57;;;4.20;;
9848;SDS011;4963;51.444;6.528;2024-02-21T11:31:40;5.77;;;3.63;;
9848;SDS011;4963;51.444;6.528;2024-02-21T11:34:11;10.20;;;4.10;;
9848;SDS011;4963;51.444;6.528;2024-02-21T11:36:45;9.33;;;4.13;;
9848;SDS011;4963;51.444;6.528;2024-02-21T11:39:17;8.20;;;3.70;;
9848;SDS011;4963;51.444;6.528;2024-02-21T11:42:00;11.80;;;3.50;;
9848;SDS011;4963;51.444;6.528;2024-02-21T11:44:29;11.93;;;4.47;;
9848;SDS011;4963;51.444;6.528;2024-02-21T11:46:56;10.83;;;3.97;;
9848;SDS011;4963;51.444;6.528;2024-02-21T11:49:24;7.17;;;3.47;;
9848;SDS011;4963;51.444;6.528;2024-02-21T11:51:57;9.33;;;3.90;;
9848;SDS011;4963;51.444;6.528;2024-02-21T11:54:26;10.20;;;4.33;;
9848;SDS011;4963;51.444;6.528;2024-02-21T11:56:53;11.30;;;5.20;;
9848;SDS011;4963;51.444;6.528;2024-02-21T11:59:21;13.27;;;3.83;;
9848;SDS011;4963;51.444;6.528;2024-02-21T12:01:48;10.47;;;3.53;;
9848;SDS011;4963;51.444;6.528;2024-02-21T12:04:17;7.73;;;3.93;;
9848;SDS011;4963;51.444;6.528;2024-02-21T12:06:45;9.07;;;4.20;;
9848;SDS011;4963;51.444;6.528;2024-02-21T12:09:13;10.87;;;3.80;;
9848;SDS011;4963;51.444;6.528;2024-02-21T12:11:41;9.87;;;4.03;;
9848;SDS011;4963;51.444;6.528;2024-02-21T12:14:08;12.33;;;4.07;;
9848;SDS011;4963;51.444;6.528;2024-02-21T12:16:36;8.40;;;3.93;;
9848;SDS011;4963;51.444;6.528;2024-02-21T12:19:03;9.50;;;4.07;;
9848;SDS011;4963;51.444;6.528;2024-02-21T12:21:32;11.20;;;4.10;;
9848;SDS011;4963;51.444;6.528;2024-02-21T12:24:11;10.53;;;3.70;;
9848;SDS011;4963;51.444;6.528;2024-02-21T12:26:39;9.47;;;3.30;;
9848;SDS011;4963;51.444;6.528;2024-02-21T12:29:06;10.37;;;4.13;;
9848;SDS011;4963;51.444;6.528;2024-02-21T12:31:34;7.23;;;3.30;;
9848;SDS011;4963;51.444;6.528;2024-02-21T12:34:02;12.63;;;4.10;;
9848;SDS011;4963;51.444;6.528;2024-02-21T12:36:29;9.77;;;3.30;;
9848;SDS011;4963;51.444;6.528;2024-02-21T12:38:56;9.57;;;3.90;;
9848;SDS011;4963;51.444;6.528;2024-02-21T12:41:23;8.17;;;3.30;;
9848;SDS011;4963;51.444;6.528;2024-02-21T12:43:52;13.87;;;5.50;;
9848;SDS011;4963;51.444;6.528;2024-02-21T12:46:18;11.63;;;4.03;;
9848;SDS011;4963;51.444;6.528;2024-02-21T12:48:45;10.27;;;3.70;;
9848;SDS011;4963;51.444;6.528;2024-02-21T12:51:14;10.47;;;4.23;;
9848;SDS011;4963;51.444;6.528;2024-02-21T12:53:45;7.77;;;3.63;;
9848;SDS011;4963;51.444;6.528;2024-02-21T12:56:14;8.43;;;4.03;;
9848;SDS011;4963;51.444;6.528;2024-02-21T12:58:41;8.47;;;4.27;;
9848;SDS011;4963;51.444;6.528;2024-02-21T13:01:08;9.10;;;3.60;;
9848;SDS011;4963;51.444;6.528;2024-02-21T13:03:35;9.90;;;3.83;;
9848;SDS011;4963;51.444;6.528;2024-02-21T13:06:03;7.03;;;3.63;;
9848;SDS011;4963;51.444;6.528;2024-02-21T13:08:32;9.10;;;3.77;;
9848;SDS011;4963;51.444;6.528;2024-02-21T13:11:00;8.30;;;4.00;;
9848;SDS011;4963;51.444;6.528;2024-02-21T13:13:28;9.83;;;3.93;;
9848;SDS011;4963;51.444;6.528;2024-02-21T13:15:55;6.57;;;3.50;;
9848;SDS011;4963;51.444;6.528;2024-02-21T13:18:22;7.20;;;4.07;;
9848;SDS011;4963;51.444;6.528;2024-02-21T13:20:50;9.40;;;3.73;;
9848;SDS011;4963;51.444;6.528;2024-02-21T13:23:17;6.80;;;4.07;;
9848;SDS011;4963;51.444;6.528;2024-02-21T13:25:47;10.23;;;3.90;;
9848;SDS011;4963;51.444;6.528;2024-02-21T13:28:15;5.87;;;3.10;;
9848;SDS011;4963;51.444;6.528;2024-02-21T13:30:42;7.20;;;3.47;;
9848;SDS011;4963;51.444;6.528;2024-02-21T13:33:09;11.17;;;4.13;;
9848;SDS011;4963;51.444;6.528;2024-02-21T13:35:37;8.97;;;3.70;;
9848;SDS011;4963;51.444;6.528;2024-02-21T13:38:04;8.23;;;3.33;;
9848;SDS011;4963;51.444;6.528;2024-02-21T13:40:32;9.27;;;3.87;;
9848;SDS011;4963;51.444;6.528;2024-02-21T13:43:00;8.87;;;3.40;;
9848;SDS011;4963;51.444;6.528;2024-02-21T13:45:27;9.37;;;3.60;;
9848;SDS011;4963;51.444;6.528;2024-02-21T13:47:56;10.40;;;3.57;;
9848;SDS011;4963;51.444;6.528;2024-02-21T13:50:25;9.10;;;3.67;;
9848;SDS011;4963;51.444;6.528;2024-02-21T13:52:56;6.63;;;2.93;;
9848;SDS011;4963;51.444;6.528;2024-02-21T13:55:23;8.03;;;3.20;;
9848;SDS011;4963;51.444;6.528;2024-02-21T13:57:51;9.43;;;3.90;;
9848;SDS011;4963;51.444;6.528;2024-02-21T14:00:19;9.03;;;3.80;;
9848;SDS011;4963;51.444;6.528;2024-02-21T14:02:46;9.37;;;3.40;;
9848;SDS011;4963;51.444;6.528;2024-02-21T14:05:13;8.80;;;3.70;;
9848;SDS011;4963;51.444;6.528;2024-02-21T14:07:40;7.53;;;3.57;;
9848;SDS011;4963;51.444;6.528;2024-02-21T14:10:07;10.80;;;4.13;;
9848;SDS011;4963;51.444;6.528;2024-02-21T14:12:35;8.30;;;3.80;;
9848;SDS011;4963;51.444;6.528;2024-02-21T14:15:05;7.73;;;3.90;;
9848;SDS011;4963;51.444;6.528;2024-02-21T14:17:35;6.80;;;3.87;;
9848;SDS011;4963;51.444;6.528;2024-02-21T14:20:02;7.33;;;3.70;;
9848;SDS011;4963;51.444;6.528;2024-02-21T14:22:29;7.27;;;3.10;;
9848;SDS011;4963;51.444;6.528;2024-02-21T14:24:56;10.03;;;3.70;;
9848;SDS011;4963;51.444;6.528;2024-02-21T14:27:23;7.20;;;3.60;;
9848;SDS011;4963;51.444;6.528;2024-02-21T14:29:50;8.37;;;3.53;;
9848;SDS011;4963;51.444;6.528;2024-02-21T14:32:18;8.43;;;3.57;;
9848;SDS011;4963;51.444;6.528;2024-02-21T14:34:47;9.20;;;3.63;;
9848;SDS011;4963;51.444;6.528;2024-02-21T14:37:14;6.70;;;3.27;;
9848;SDS011;4963;51.444;6.528;2024-02-21T14:39:41;9.07;;;3.40;;
9848;SDS011;4963;51.444;6.528;2024-02-21T14:42:08;8.73;;;3.80;;
9848;SDS011;4963;51.444;6.528;2024-02-21T14:44:35;7.80;;;3.47;;
9848;SDS011;4963;51.444;6.528;2024-02-21T14:47:04;10.50;;;3.57;;
9848;SDS011;4963;51.444;6.528;2024-02-21T14:49:31;7.83;;;3.60;;
9848;SDS011;4963;51.444;6.528;2024-02-21T14:51:59;9.57;;;4.17;;
9848;SDS011;4963;51.444;6.528;2024-02-21T14:54:28;6.97;;;3.60;;
9848;SDS011;4963;51.444;6.528;2024-02-21T14:56:55;6.57;;;3.40;;
9848;SDS011;4963;51.444;6.528;2024-02-21T14:59:21;8.10;;;3.20;;
9848;SDS011;4963;51.444;6.528;2024-02-21T15:01:49;8.93;;;3.80;;
9848;SDS011;4963;51.444;6.528;2024-02-21T15:04:16;7.63;;;3.67;;
9848;SDS011;4963;51.444;6.528;2024-02-21T15:06:42;9.33;;;3.40;;
9848;SDS011;4963;51.444;6.528;2024-02-21T15:09:11;7.00;;;3.07;;